createdAt,value
2017-08-21T00:00:21.213Z,0
2017-08-21T00:01:31.177Z,0
2017-08-21T00:02:41.451Z,0
2017-08-21T00:03:51.738Z,0
2017-08-21T00:05:01.701Z,0
2017-08-21T00:06:11.975Z,0
2017-08-21T00:07:21.302Z,0
2017-08-21T00:08:30.946Z,0
2017-08-21T00:09:40.916Z,0
2017-08-21T00:10:51.188Z,0
2017-08-21T00:12:01.140Z,0
2017-08-21T00:13:11.414Z,0
2017-08-21T00:14:21.692Z,0
2017-08-21T00:15:31.651Z,0
2017-08-21T00:16:41.616Z,0
2017-08-21T00:17:51.911Z,0
2017-08-21T00:19:02.194Z,0
2017-08-21T00:20:12.164Z,0
2017-08-21T00:21:22.123Z,0
2017-08-21T00:22:32.084Z,0
2017-08-21T00:23:42.047Z,0
2017-08-21T00:24:52.321Z,0
2017-08-21T00:26:02.591Z,0
2017-08-21T00:27:12.868Z,0
2017-08-21T00:28:23.157Z,0
2017-08-21T00:29:33.449Z,0
2017-08-21T00:30:43.437Z,0
2017-08-21T00:31:53.706Z,0
2017-08-21T00:33:03.676Z,0
2017-08-21T00:34:13.952Z,0
2017-08-21T00:35:24.058Z,0
2017-08-21T00:36:34.025Z,0
2017-08-21T00:37:44.309Z,0
2017-08-21T00:38:54.268Z,0
2017-08-21T00:40:04.540Z,0
2017-08-21T00:41:14.814Z,0
2017-08-21T00:42:24.778Z,0
2017-08-21T00:43:35.047Z,0
2017-08-21T00:44:45.006Z,0
2017-08-21T00:45:54.963Z,0
2017-08-21T00:47:05.242Z,0
2017-08-21T00:48:15.200Z,0
2017-08-21T00:49:25.470Z,0
2017-08-21T00:50:35.430Z,0
2017-08-21T00:51:45.390Z,0
2017-08-21T00:52:55.045Z,0
2017-08-21T00:54:05.009Z,0
2017-08-21T00:55:15.284Z,0
2017-08-21T00:56:25.555Z,0
2017-08-21T00:57:35.828Z,0
2017-08-21T00:58:45.471Z,0
2017-08-21T00:59:55.750Z,0
2017-08-21T01:01:05.393Z,0
2017-08-21T01:02:15.036Z,0
2017-08-21T01:03:24.993Z,0
2017-08-21T01:04:34.950Z,0
2017-08-21T01:05:45.220Z,0
2017-08-21T01:06:55.499Z,0
2017-08-21T01:08:05.771Z,0
2017-08-21T01:09:15.738Z,0
2017-08-21T01:10:25.695Z,0
2017-08-21T01:11:35.339Z,0
2017-08-21T01:12:45.315Z,0
2017-08-21T01:13:54.959Z,0
2017-08-21T01:15:04.914Z,0
2017-08-21T01:16:14.556Z,0
2017-08-21T01:17:24.512Z,0
2017-08-21T01:18:34.472Z,0
2017-08-21T01:19:44.742Z,0
2017-08-21T01:20:55.011Z,0
2017-08-21T01:22:05.282Z,0
2017-08-21T01:23:15.556Z,0
2017-08-21T01:24:25.197Z,0
2017-08-21T01:25:35.466Z,0
2017-08-21T01:26:45.105Z,0
2017-08-21T01:27:55.065Z,0
2017-08-21T01:29:05.346Z,0
2017-08-21T01:30:15.307Z,0
2017-08-21T01:31:25.576Z,0
2017-08-21T01:32:35.534Z,0
2017-08-21T01:33:45.490Z,0
2017-08-21T01:34:55.135Z,0
2017-08-21T01:36:05.097Z,0
2017-08-21T01:37:15.369Z,0
2017-08-21T01:38:25.324Z,0
2017-08-21T01:39:34.968Z,0
2017-08-21T01:40:45.255Z,0
2017-08-21T01:41:54.898Z,0
2017-08-21T01:43:05.169Z,0
2017-08-21T01:44:14.497Z,0
2017-08-21T01:45:24.766Z,0
2017-08-21T01:46:34.743Z,0
2017-08-21T01:47:45.021Z,0
2017-08-21T01:48:54.665Z,0
2017-08-21T01:50:04.622Z,0
2017-08-21T01:51:14.889Z,0
2017-08-21T01:52:25.160Z,0
2017-08-21T01:53:35.439Z,0
2017-08-21T01:54:45.079Z,0
2017-08-21T01:55:55.034Z,0
2017-08-21T01:57:04.990Z,0
2017-08-21T01:58:15.267Z,0
2017-08-21T01:59:25.224Z,0
2017-08-21T02:00:35.494Z,0
2017-08-21T02:01:45.446Z,0
2017-08-21T02:02:55.403Z,0
2017-08-21T02:04:05.057Z,0
2017-08-21T02:05:15.022Z,0
2017-08-21T02:06:25.295Z,0
2017-08-21T02:07:35.250Z,0
2017-08-21T02:08:44.990Z,0
2017-08-21T02:09:54.320Z,0
2017-08-21T02:11:04.607Z,0
2017-08-21T02:12:14.887Z,0
2017-08-21T02:13:24.843Z,0
2017-08-21T02:14:35.110Z,0
2017-08-21T02:15:44.756Z,0
2017-08-21T02:16:55.029Z,0
2017-08-21T02:18:05.322Z,0
2017-08-21T02:19:14.964Z,0
2017-08-21T02:20:24.923Z,0
2017-08-21T02:21:35.198Z,0
2017-08-21T02:22:44.844Z,0
2017-08-21T02:23:55.117Z,0
2017-08-21T02:25:05.098Z,0
2017-08-21T02:26:15.369Z,0
2017-08-21T02:27:25.648Z,0
2017-08-21T02:28:35.610Z,0
2017-08-21T02:29:45.253Z,0
2017-08-21T02:30:55.521Z,0
2017-08-21T02:32:05.489Z,0
2017-08-21T02:33:15.452Z,0
2017-08-21T02:34:25.423Z,0
2017-08-21T02:35:35.379Z,0
2017-08-21T02:36:45.035Z,0
2017-08-21T02:37:55.315Z,0
2017-08-21T02:39:05.288Z,0
2017-08-21T02:40:15.573Z,0
2017-08-21T02:41:25.856Z,0
2017-08-21T02:42:35.825Z,0
2017-08-21T02:43:45.800Z,0
2017-08-21T02:44:56.085Z,0
2017-08-21T02:46:06.374Z,0
2017-08-21T02:47:16.667Z,0
2017-08-21T02:48:26.622Z,0
2017-08-21T02:49:36.590Z,0
2017-08-21T02:50:46.862Z,0
2017-08-21T02:51:56.818Z,0
2017-08-21T02:53:07.093Z,0
2017-08-21T02:54:17.366Z,0
2017-08-21T02:55:29.641Z,0
2017-08-21T02:56:39.601Z,0
2017-08-21T02:57:49.561Z,0
2017-08-21T02:58:59.839Z,0
2017-08-21T03:00:10.111Z,0
2017-08-21T03:01:20.385Z,0
2017-08-21T03:02:30.663Z,0
2017-08-21T03:03:40.644Z,0
2017-08-21T03:04:50.286Z,0
2017-08-21T03:06:00.557Z,0
2017-08-21T03:07:10.533Z,0
2017-08-21T03:08:20.804Z,0
2017-08-21T03:09:31.079Z,0
2017-08-21T03:10:40.720Z,0
2017-08-21T03:11:50.372Z,0
2017-08-21T03:13:00.329Z,0
2017-08-21T03:14:10.603Z,0
2017-08-21T03:15:20.878Z,0
2017-08-21T03:16:31.154Z,0
2017-08-21T03:17:41.424Z,0
2017-08-21T03:18:51.069Z,0
2017-08-21T03:20:01.029Z,0
2017-08-21T03:21:10.670Z,0
2017-08-21T03:22:20.943Z,0
2017-08-21T03:23:31.221Z,0
2017-08-21T03:24:41.497Z,0
2017-08-21T03:25:51.140Z,0
2017-08-21T03:27:01.414Z,0
2017-08-21T03:28:11.686Z,0
2017-08-21T03:29:21.956Z,0
2017-08-21T03:30:32.238Z,0
2017-08-21T03:31:42.195Z,0
2017-08-21T03:32:52.150Z,0
2017-08-21T03:34:02.422Z,0
2017-08-21T03:35:12.697Z,0
2017-08-21T03:36:23.006Z,0
2017-08-21T03:37:32.962Z,0
2017-08-21T03:38:42.601Z,0
2017-08-21T03:39:52.872Z,0
2017-08-21T03:41:02.831Z,0
2017-08-21T03:42:12.789Z,5
2017-08-21T03:43:22.746Z,5
2017-08-21T03:44:33.019Z,5
2017-08-21T03:45:42.666Z,5
2017-08-21T03:46:52.622Z,5
2017-08-21T03:48:03.092Z,5
2017-08-21T03:49:13.052Z,5
2017-08-21T03:50:23.034Z,5
2017-08-21T03:51:33.303Z,5
2017-08-21T03:52:43.259Z,10
2017-08-21T03:53:53.217Z,10
2017-08-21T03:55:03.172Z,10
2017-08-21T03:56:13.144Z,10
2017-08-21T03:57:23.417Z,10
2017-08-21T03:58:33.688Z,15
2017-08-21T03:59:43.963Z,15
2017-08-21T04:00:53.291Z,15
2017-08-21T04:02:03.560Z,15
2017-08-21T04:03:13.830Z,20
2017-08-21T04:04:23.157Z,20
2017-08-21T04:05:33.433Z,20
2017-08-21T04:06:43.397Z,20
2017-08-21T04:07:53.355Z,25
2017-08-21T04:09:03.628Z,25
2017-08-21T04:10:13.902Z,25
2017-08-21T04:11:24.174Z,30
2017-08-21T04:12:33.814Z,30
2017-08-21T04:13:44.084Z,35
2017-08-21T04:14:54.353Z,35
2017-08-21T04:16:04.622Z,35
2017-08-21T04:17:14.585Z,40
2017-08-21T04:18:24.856Z,40
2017-08-21T04:19:34.813Z,40
2017-08-21T04:20:44.780Z,45
2017-08-21T04:21:54.739Z,45
2017-08-21T04:23:05.034Z,45
2017-08-21T04:24:15.000Z,50
2017-08-21T04:25:25.272Z,50
2017-08-21T04:26:35.229Z,50
2017-08-21T04:27:44.873Z,50
2017-08-21T04:28:54.828Z,50
2017-08-21T04:30:05.108Z,50
2017-08-21T04:31:15.398Z,55
2017-08-21T04:32:25.677Z,55
2017-08-21T04:33:35.634Z,60
2017-08-21T04:34:45.589Z,60
2017-08-21T04:35:55.243Z,60
2017-08-21T04:37:05.521Z,65
2017-08-21T04:38:15.486Z,65
2017-08-21T04:39:25.758Z,65
2017-08-21T04:40:36.042Z,70
2017-08-21T04:41:45.998Z,70
2017-08-21T04:42:55.646Z,70
2017-08-21T04:44:05.626Z,70
2017-08-21T04:45:15.897Z,75
2017-08-21T04:46:26.172Z,75
2017-08-21T04:47:36.451Z,75
2017-08-21T04:48:46.408Z,80
2017-08-21T04:49:56.679Z,80
2017-08-21T04:51:06.958Z,90
2017-08-21T04:52:17.229Z,85
2017-08-21T04:53:27.196Z,90
2017-08-21T04:54:37.472Z,95
2017-08-21T04:55:47.427Z,90
2017-08-21T04:56:57.384Z,90
2017-08-21T04:58:07.342Z,90
2017-08-21T04:59:17.612Z,95
2017-08-21T05:00:27.882Z,95
2017-08-21T05:01:38.158Z,95
2017-08-21T05:02:48.122Z,95
2017-08-21T05:03:58.392Z,95
2017-08-21T05:05:08.075Z,95
2017-08-21T05:06:18.033Z,95
2017-08-21T05:07:27.999Z,95
2017-08-21T05:08:37.956Z,100
2017-08-21T05:09:47.915Z,100
2017-08-21T05:10:58.186Z,100
2017-08-21T05:12:08.144Z,100
2017-08-21T05:13:18.115Z,95
2017-08-21T05:14:28.097Z,95
2017-08-21T05:15:38.050Z,95
2017-08-21T05:16:47.692Z,95
2017-08-21T05:17:57.657Z,90
2017-08-21T05:19:07.927Z,85
2017-08-21T05:20:17.573Z,85
2017-08-21T05:21:27.847Z,85
2017-08-21T05:22:37.804Z,85
2017-08-21T05:23:48.078Z,85
2017-08-21T05:24:57.716Z,85
2017-08-21T05:26:07.363Z,90
2017-08-21T05:27:17.330Z,85
2017-08-21T05:28:27.601Z,90
2017-08-21T05:29:37.559Z,90
2017-08-21T05:30:47.537Z,90
2017-08-21T05:31:57.496Z,90
2017-08-21T05:33:07.764Z,90
2017-08-21T05:34:17.725Z,90
2017-08-21T05:35:28.003Z,90
2017-08-21T05:36:37.646Z,90
2017-08-21T05:37:47.613Z,90
2017-08-21T05:38:57.575Z,95
2017-08-21T05:40:07.532Z,95
2017-08-21T05:41:17.804Z,100
2017-08-21T05:42:27.764Z,105
2017-08-21T05:43:37.728Z,105
2017-08-21T05:44:47.690Z,100
2017-08-21T05:45:57.963Z,100
2017-08-21T05:47:07.931Z,100
2017-08-21T05:48:17.890Z,105
2017-08-21T05:49:28.162Z,110
2017-08-21T05:50:37.807Z,115
2017-08-21T05:51:48.084Z,120
2017-08-21T05:52:58.360Z,120
2017-08-21T05:54:08.659Z,125
2017-08-21T05:55:18.618Z,125
2017-08-21T05:56:28.895Z,125
2017-08-21T05:57:38.858Z,125
2017-08-21T05:58:49.136Z,125
2017-08-21T05:59:59.413Z,125
2017-08-21T06:01:09.684Z,130
2017-08-21T06:02:19.961Z,130
2017-08-21T06:03:29.606Z,130
2017-08-21T06:04:39.880Z,130
2017-08-21T06:05:50.154Z,130
2017-08-21T06:07:00.111Z,135
2017-08-21T06:08:10.076Z,135
2017-08-21T06:09:20.351Z,140
2017-08-21T06:10:30.636Z,140
2017-08-21T06:11:40.915Z,140
2017-08-21T06:12:50.872Z,140
2017-08-21T06:14:00.829Z,140
2017-08-21T06:15:10.476Z,140
2017-08-21T06:16:20.756Z,145
2017-08-21T06:17:31.030Z,150
2017-08-21T06:18:41.305Z,150
2017-08-21T06:19:51.260Z,155
2017-08-21T06:21:01.536Z,155
2017-08-21T06:22:11.669Z,160
2017-08-21T06:23:21.315Z,165
2017-08-21T06:24:31.595Z,170
2017-08-21T06:25:41.868Z,180
2017-08-21T06:26:52.154Z,190
2017-08-21T06:28:02.112Z,200
2017-08-21T06:29:12.390Z,200
2017-08-21T06:30:22.348Z,205
2017-08-21T06:31:32.307Z,205
2017-08-21T06:32:42.581Z,210
2017-08-21T06:33:52.225Z,210
2017-08-21T06:35:02.222Z,215
2017-08-21T06:36:12.506Z,215
2017-08-21T06:37:22.464Z,220
2017-08-21T06:38:32.421Z,225
2017-08-21T06:39:42.698Z,235
2017-08-21T06:40:52.659Z,240
2017-08-21T06:42:02.626Z,240
2017-08-21T06:43:12.589Z,240
2017-08-21T06:44:22.861Z,245
2017-08-21T06:45:32.506Z,245
2017-08-21T06:46:42.469Z,250
2017-08-21T06:47:52.745Z,255
2017-08-21T06:49:04.499Z,260
2017-08-21T06:50:14.779Z,270
2017-08-21T06:51:25.051Z,275
2017-08-21T06:52:35.015Z,275
2017-08-21T06:53:45.292Z,280
2017-08-21T06:54:55.566Z,290
2017-08-21T06:56:05.526Z,290
2017-08-21T06:57:15.484Z,285
2017-08-21T06:58:25.514Z,295
2017-08-21T06:59:35.792Z,290
2017-08-21T07:00:46.064Z,295
2017-08-21T07:01:56.352Z,290
2017-08-21T07:03:06.317Z,295
2017-08-21T07:04:16.591Z,290
2017-08-21T07:05:26.550Z,285
2017-08-21T07:06:36.827Z,280
2017-08-21T07:07:46.473Z,275
2017-08-21T07:08:56.117Z,280
2017-08-21T07:10:06.395Z,280
2017-08-21T07:11:16.671Z,275
2017-08-21T07:12:26.632Z,270
2017-08-21T07:13:36.917Z,265
2017-08-21T07:14:46.566Z,260
2017-08-21T07:15:56.869Z,260
2017-08-21T07:17:06.829Z,260
2017-08-21T07:18:16.793Z,260
2017-08-21T07:19:26.755Z,260
2017-08-21T07:20:37.032Z,265
2017-08-21T07:21:46.993Z,260
2017-08-21T07:22:56.654Z,270
2017-08-21T07:24:06.632Z,255
2017-08-21T07:25:16.596Z,265
2017-08-21T07:26:26.870Z,265
2017-08-21T07:27:37.142Z,255
2017-08-21T07:28:47.108Z,250
2017-08-21T07:29:57.381Z,265
2017-08-21T07:31:07.656Z,270
2017-08-21T07:32:17.933Z,280
2017-08-21T07:33:27.893Z,270
2017-08-21T07:34:38.170Z,290
2017-08-21T07:35:48.449Z,265
2017-08-21T07:36:58.729Z,275
2017-08-21T07:38:08.695Z,275
2017-08-21T07:39:18.992Z,300
2017-08-21T07:40:29.266Z,290
2017-08-21T07:41:39.539Z,295
2017-08-21T07:42:49.826Z,295
2017-08-21T07:43:59.791Z,305
2017-08-21T07:45:09.755Z,310
2017-08-21T07:46:19.742Z,315
2017-08-21T07:47:30.016Z,320
2017-08-21T07:48:39.976Z,330
2017-08-21T07:49:50.250Z,350
2017-08-21T07:51:00.525Z,375
2017-08-21T07:52:10.169Z,395
2017-08-21T07:53:20.440Z,420
2017-08-21T07:54:30.087Z,440
2017-08-21T07:55:40.046Z,480
2017-08-21T07:56:50.010Z,495
2017-08-21T07:57:59.973Z,505
2017-08-21T07:59:09.626Z,535
2017-08-21T08:00:19.902Z,535
2017-08-21T08:01:30.184Z,525
2017-08-21T08:02:40.467Z,540
2017-08-21T08:03:50.463Z,510
2017-08-21T08:05:00.739Z,530
2017-08-21T08:06:11.020Z,485
2017-08-21T08:07:20.988Z,485
2017-08-21T08:08:31.266Z,480
2017-08-21T08:09:41.230Z,480
2017-08-21T08:10:50.888Z,485
2017-08-21T08:12:01.166Z,490
2017-08-21T08:13:11.126Z,460
2017-08-21T08:14:21.401Z,475
2017-08-21T08:15:31.683Z,445
2017-08-21T08:16:41.958Z,445
2017-08-21T08:17:51.606Z,450
2017-08-21T08:19:01.881Z,440
2017-08-21T08:20:11.851Z,455
2017-08-21T08:21:21.873Z,440
2017-08-21T08:22:31.523Z,435
2017-08-21T08:23:41.170Z,440
2017-08-21T08:24:51.131Z,430
2017-08-21T08:26:01.405Z,440
2017-08-21T08:27:11.689Z,430
2017-08-21T08:28:21.656Z,435
2017-08-21T08:29:31.935Z,440
2017-08-21T08:30:41.894Z,440
2017-08-21T08:31:52.176Z,440
2017-08-21T08:33:02.158Z,440
2017-08-21T08:34:12.128Z,435
2017-08-21T08:35:22.409Z,435
2017-08-21T08:36:32.689Z,430
2017-08-21T08:37:42.964Z,425
2017-08-21T08:38:52.931Z,420
2017-08-21T08:40:02.891Z,415
2017-08-21T08:41:12.541Z,410
2017-08-21T08:42:22.816Z,395
2017-08-21T08:43:33.094Z,395
2017-08-21T08:44:43.056Z,400
2017-08-21T08:45:53.034Z,410
2017-08-21T08:47:02.374Z,425
2017-08-21T08:48:12.027Z,430
2017-08-21T08:49:22.312Z,450
2017-08-21T08:50:32.275Z,470
2017-08-21T08:51:42.549Z,485
2017-08-21T08:52:52.511Z,495
2017-08-21T08:54:02.486Z,505
2017-08-21T08:55:12.768Z,520
2017-08-21T08:56:23.046Z,525
2017-08-21T08:57:33.327Z,525
2017-08-21T08:58:43.296Z,530
2017-08-21T08:59:53.589Z,530
2017-08-21T09:01:03.566Z,520
2017-08-21T09:02:13.237Z,520
2017-08-21T09:03:23.514Z,530
2017-08-21T09:04:33.480Z,530
2017-08-21T09:05:43.756Z,525
2017-08-21T09:06:53.728Z,525
2017-08-21T09:08:03.726Z,530
2017-08-21T09:09:14.003Z,525
2017-08-21T09:10:24.280Z,520
2017-08-21T09:11:34.021Z,510
2017-08-21T09:12:44.299Z,495
2017-08-21T09:13:54.270Z,480
2017-08-21T09:15:04.547Z,470
2017-08-21T09:16:14.510Z,460
2017-08-21T09:17:24.161Z,470
2017-08-21T09:18:34.441Z,490
2017-08-21T09:19:44.088Z,500
2017-08-21T09:20:54.052Z,520
2017-08-21T09:22:04.017Z,530
2017-08-21T09:23:13.673Z,520
2017-08-21T09:24:23.962Z,515
2017-08-21T09:25:33.950Z,505
2017-08-21T09:26:44.231Z,500
2017-08-21T09:27:53.882Z,490
2017-08-21T09:29:03.853Z,470
2017-08-21T09:30:14.132Z,460
2017-08-21T09:31:24.458Z,460
2017-08-21T09:32:34.744Z,460
2017-08-21T09:33:45.031Z,450
2017-08-21T09:34:55.322Z,445
2017-08-21T09:36:05.290Z,435
2017-08-21T09:37:15.264Z,435
2017-08-21T09:38:25.552Z,430
2017-08-21T09:39:35.516Z,435
2017-08-21T09:40:45.480Z,430
2017-08-21T09:41:55.443Z,425
2017-08-21T09:43:05.098Z,425
2017-08-21T09:44:15.406Z,440
2017-08-21T09:45:25.711Z,445
2017-08-21T09:46:35.993Z,445
2017-08-21T09:47:45.957Z,445
2017-08-21T09:48:56.240Z,450
2017-08-21T09:50:06.213Z,450
2017-08-21T09:51:16.494Z,455
2017-08-21T09:52:26.486Z,455
2017-08-21T09:53:36.764Z,460
2017-08-21T09:54:46.414Z,460
2017-08-21T09:55:55.749Z,455
2017-08-21T09:57:05.721Z,450
2017-08-21T09:58:15.689Z,435
2017-08-21T09:59:25.964Z,415
2017-08-21T10:00:35.615Z,425
2017-08-21T10:01:45.580Z,440
2017-08-21T10:02:55.859Z,460
2017-08-21T10:04:06.145Z,470
2017-08-21T10:05:15.794Z,470
2017-08-21T10:06:25.758Z,460
2017-08-21T10:07:36.033Z,450
2017-08-21T10:08:45.998Z,465
2017-08-21T10:09:55.965Z,490
2017-08-21T10:11:06.241Z,540
2017-08-21T10:12:16.206Z,585
2017-08-21T10:13:26.490Z,630
2017-08-21T10:14:36.780Z,625
2017-08-21T10:15:47.065Z,630
2017-08-21T10:16:56.717Z,625
2017-08-21T10:18:06.365Z,605
2017-08-21T10:19:16.014Z,560
2017-08-21T10:20:25.986Z,515
2017-08-21T10:21:36.269Z,475
2017-08-21T10:22:46.545Z,450
2017-08-21T10:23:56.193Z,440
2017-08-21T10:25:06.155Z,465
2017-08-21T10:26:16.118Z,450
2017-08-21T10:27:25.482Z,455
2017-08-21T10:28:35.449Z,465
2017-08-21T10:29:45.414Z,475
2017-08-21T10:30:55.387Z,475
2017-08-21T10:32:05.052Z,465
2017-08-21T10:33:15.332Z,485
2017-08-21T10:34:25.298Z,465
2017-08-21T10:35:35.577Z,475
2017-08-21T10:36:45.853Z,475
2017-08-21T10:37:55.501Z,480
2017-08-21T10:39:05.467Z,480
2017-08-21T10:40:15.431Z,485
2017-08-21T10:41:25.709Z,480
2017-08-21T10:42:35.989Z,475
2017-08-21T10:43:45.954Z,475
2017-08-21T10:44:55.921Z,455
2017-08-21T10:46:05.886Z,445
2017-08-21T10:47:16.165Z,455
2017-08-21T10:48:26.449Z,485
2017-08-21T10:49:36.731Z,470
2017-08-21T10:50:46.381Z,485
2017-08-21T10:51:56.347Z,510
2017-08-21T10:53:06.313Z,525
2017-08-21T10:54:16.593Z,540
2017-08-21T10:55:26.872Z,545
2017-08-21T10:56:36.843Z,570
2017-08-21T10:57:46.493Z,545
2017-08-21T10:58:56.458Z,555
2017-08-21T11:00:06.421Z,575
2017-08-21T11:01:16.704Z,595
2017-08-21T11:02:26.669Z,605
2017-08-21T11:03:36.932Z,610
2017-08-21T11:04:46.698Z,610
2017-08-21T11:05:56.361Z,600
2017-08-21T11:07:06.013Z,640
2017-08-21T11:08:15.983Z,650
2017-08-21T11:09:25.959Z,665
2017-08-21T11:10:36.241Z,675
2017-08-21T11:11:45.888Z,675
2017-08-21T11:12:55.860Z,715
2017-08-21T11:14:06.146Z,740
2017-08-21T11:15:16.111Z,745
2017-08-21T11:16:26.077Z,750
2017-08-21T11:17:35.730Z,760
2017-08-21T11:18:46.018Z,785
2017-08-21T11:19:55.668Z,770
2017-08-21T11:21:05.967Z,815
2017-08-21T11:22:16.248Z,860
2017-08-21T11:23:25.898Z,1060
2017-08-21T11:24:35.866Z,1565
2017-08-21T11:25:46.146Z,1395
2017-08-21T11:26:56.110Z,1590
2017-08-21T11:28:06.077Z,965
2017-08-21T11:29:16.370Z,1565
2017-08-21T11:30:26.378Z,1460
2017-08-21T11:31:36.355Z,1630
2017-08-21T11:32:46.325Z,2175
2017-08-21T11:33:56.610Z,2295
2017-08-21T11:35:06.896Z,2400
2017-08-21T11:36:17.183Z,2375
2017-08-21T11:37:27.465Z,1905
2017-08-21T11:38:37.467Z,1775
2017-08-21T11:39:47.139Z,1970
2017-08-21T11:40:56.490Z,1720
2017-08-21T11:42:06.467Z,1400
2017-08-21T11:43:16.124Z,1215
2017-08-21T11:44:26.095Z,1240
2017-08-21T11:45:36.382Z,1255
2017-08-21T11:46:46.048Z,1220
2017-08-21T11:47:56.018Z,1225
2017-08-21T11:49:06.304Z,1280
2017-08-21T11:50:16.593Z,1370
2017-08-21T11:51:26.563Z,1205
2017-08-21T11:52:36.852Z,915
2017-08-21T11:53:46.507Z,905
2017-08-21T11:54:56.486Z,905
2017-08-21T11:56:06.456Z,895
2017-08-21T11:57:16.432Z,890
2017-08-21T11:58:26.720Z,950
2017-08-21T11:59:37.009Z,950
2017-08-21T12:00:46.667Z,950
2017-08-21T12:01:56.966Z,950
2017-08-21T12:03:07.249Z,940
2017-08-21T12:04:17.229Z,910
2017-08-21T12:05:27.518Z,870
2017-08-21T12:06:37.800Z,840
2017-08-21T12:07:48.091Z,810
2017-08-21T12:08:57.747Z,790
2017-08-21T12:10:07.718Z,770
2017-08-21T12:11:18.008Z,760
2017-08-21T12:12:28.294Z,755
2017-08-21T12:13:38.287Z,745
2017-08-21T12:14:48.572Z,725
2017-08-21T12:15:58.539Z,725
2017-08-21T12:17:08.510Z,740
2017-08-21T12:18:18.479Z,765
2017-08-21T12:19:27.817Z,880
2017-08-21T12:20:38.104Z,780
2017-08-21T12:21:47.758Z,720
2017-08-21T12:22:58.047Z,705
2017-08-21T12:24:08.336Z,720
2017-08-21T12:25:18.305Z,725
2017-08-21T12:26:27.640Z,745
2017-08-21T12:27:37.300Z,765
2017-08-21T12:28:46.953Z,785
2017-08-21T12:29:56.922Z,805
2017-08-21T12:31:06.589Z,810
2017-08-21T12:32:16.878Z,815
2017-08-21T12:33:26.530Z,825
2017-08-21T12:34:36.811Z,835
2017-08-21T12:35:46.779Z,845
2017-08-21T12:36:56.751Z,855
2017-08-21T12:38:06.094Z,855
2017-08-21T12:39:16.481Z,845
2017-08-21T12:40:26.764Z,830
2017-08-21T12:41:37.054Z,800
2017-08-21T12:42:47.031Z,785
2017-08-21T12:43:57.313Z,785
2017-08-21T12:45:07.280Z,780
2017-08-21T12:46:17.569Z,785
2017-08-21T12:47:27.863Z,790
2017-08-21T12:48:37.522Z,805
2017-08-21T12:49:47.489Z,820
2017-08-21T12:50:57.462Z,835
2017-08-21T12:52:07.456Z,855
2017-08-21T12:53:17.115Z,890
2017-08-21T12:54:27.085Z,925
2017-08-21T12:55:37.379Z,890
2017-08-21T12:56:47.348Z,895
2017-08-21T12:57:57.326Z,920
2017-08-21T12:59:07.295Z,985
2017-08-21T13:00:17.577Z,1095
2017-08-21T13:01:26.916Z,1000
2017-08-21T13:02:36.882Z,905
2017-08-21T13:03:46.541Z,845
2017-08-21T13:04:56.507Z,845
2017-08-21T13:06:06.483Z,850
2017-08-21T13:07:16.764Z,880
2017-08-21T13:08:27.068Z,870
2017-08-21T13:09:37.055Z,855
2017-08-21T13:10:46.705Z,845
2017-08-21T13:11:56.983Z,850
2017-08-21T13:13:06.657Z,850
2017-08-21T13:14:16.939Z,825
2017-08-21T13:15:27.222Z,820
2017-08-21T13:16:37.506Z,830
2017-08-21T13:17:47.475Z,845
2017-08-21T13:18:57.448Z,860
2017-08-21T13:20:06.787Z,880
2017-08-21T13:21:17.066Z,860
2017-08-21T13:22:26.722Z,805
2017-08-21T13:23:36.694Z,765
2017-08-21T13:24:46.981Z,720
2017-08-21T13:25:56.948Z,705
2017-08-21T13:27:07.231Z,700
2017-08-21T13:28:17.524Z,720
2017-08-21T13:29:27.491Z,730
2017-08-21T13:30:37.774Z,715
2017-08-21T13:31:47.743Z,710
2017-08-21T13:32:58.030Z,710
2017-08-21T13:34:07.686Z,725
2017-08-21T13:35:17.350Z,760
2017-08-21T13:36:27.632Z,790
2017-08-21T13:37:37.599Z,820
2017-08-21T13:38:47.248Z,810
2017-08-21T13:39:56.900Z,795
2017-08-21T13:41:06.239Z,795
2017-08-21T13:42:15.596Z,790
2017-08-21T13:43:25.601Z,775
2017-08-21T13:44:35.468Z,770
2017-08-21T13:45:45.974Z,750
2017-08-21T13:46:55.955Z,735
2017-08-21T13:48:06.238Z,745
2017-08-21T13:49:16.208Z,780
2017-08-21T13:50:26.495Z,780
2017-08-21T13:51:36.467Z,795
2017-08-21T13:52:46.746Z,825
2017-08-21T13:53:56.397Z,860
2017-08-21T13:55:06.375Z,865
2017-08-21T13:56:16.656Z,860
2017-08-21T13:57:26.945Z,860
2017-08-21T13:58:36.918Z,905
2017-08-21T13:59:46.889Z,825
2017-08-21T14:00:56.539Z,835
2017-08-21T14:02:06.189Z,850
2017-08-21T14:03:16.479Z,865
2017-08-21T14:04:26.447Z,915
2017-08-21T14:05:36.439Z,1015
2017-08-21T14:06:46.413Z,1055
2017-08-21T14:07:56.065Z,1130
2017-08-21T14:09:05.717Z,1180
2017-08-21T14:10:16.004Z,1045
2017-08-21T14:11:26.289Z,1055
2017-08-21T14:12:36.257Z,1095
2017-08-21T14:13:45.916Z,1990
2017-08-21T14:14:55.599Z,1950
2017-08-21T14:16:05.570Z,1665
2017-08-21T14:17:15.884Z,1125
2017-08-21T14:18:25.852Z,950
2017-08-21T14:19:35.820Z,960
2017-08-21T14:20:45.791Z,950
2017-08-21T14:21:55.757Z,940
2017-08-21T14:23:05.732Z,930
2017-08-21T14:24:16.045Z,920
2017-08-21T14:25:26.343Z,910
2017-08-21T14:26:36.629Z,905
2017-08-21T14:27:46.627Z,925
2017-08-21T14:28:56.908Z,980
2017-08-21T14:30:06.564Z,1270
2017-08-21T14:31:16.562Z,1170
2017-08-21T14:32:26.532Z,1180
2017-08-21T14:33:36.197Z,1140
2017-08-21T14:34:46.213Z,1270
2017-08-21T14:35:56.495Z,1035
2017-08-21T14:37:06.787Z,1045
2017-08-21T14:38:16.463Z,1050
2017-08-21T14:39:26.752Z,1160
2017-08-21T14:40:37.035Z,1580
2017-08-21T14:41:47.318Z,1845
2017-08-21T14:42:57.616Z,1160
2017-08-21T14:44:07.585Z,970
2017-08-21T14:45:17.870Z,975
2017-08-21T14:46:26.897Z,1010
2017-08-21T14:47:36.864Z,815
2017-08-21T14:48:46.833Z,835
2017-08-21T14:49:57.117Z,610
2017-08-21T14:51:07.400Z,405
2017-08-21T14:52:17.686Z,300
2017-08-21T14:53:27.659Z,230
2017-08-21T14:54:37.317Z,190
2017-08-21T14:55:47.312Z,175
2017-08-21T14:56:56.962Z,150
2017-08-21T14:58:06.619Z,135
2017-08-21T14:59:16.587Z,125
2017-08-21T15:00:26.237Z,120
2017-08-21T15:01:36.206Z,120
2017-08-21T15:02:46.175Z,120
2017-08-21T15:03:56.457Z,120
2017-08-21T15:05:06.747Z,125
2017-08-21T15:06:15.774Z,125
2017-08-21T15:07:25.743Z,130
2017-08-21T15:08:36.023Z,135
2017-08-21T15:09:45.989Z,140
2017-08-21T15:10:55.643Z,150
2017-08-21T15:12:05.922Z,175
2017-08-21T15:13:15.570Z,210
2017-08-21T15:14:25.221Z,260
2017-08-21T15:15:35.505Z,290
2017-08-21T15:16:45.477Z,325
2017-08-21T15:17:55.758Z,345
2017-08-21T15:19:06.036Z,355
2017-08-21T15:20:16.314Z,360
2017-08-21T15:21:26.286Z,355
2017-08-21T15:22:36.565Z,370
2017-08-21T15:23:46.540Z,390
2017-08-21T15:24:56.823Z,405
2017-08-21T15:26:06.786Z,415
2017-08-21T15:27:17.067Z,420
2017-08-21T15:28:27.031Z,415
2017-08-21T15:29:37.314Z,410
2017-08-21T15:30:47.281Z,395
2017-08-21T15:31:57.247Z,380
2017-08-21T15:33:07.546Z,365
2017-08-21T15:34:17.508Z,365
2017-08-21T15:35:27.783Z,370
2017-08-21T15:36:37.774Z,380
2017-08-21T15:37:48.062Z,385
2017-08-21T15:38:58.025Z,390
2017-08-21T15:40:08.311Z,395
2017-08-21T15:41:17.957Z,400
2017-08-21T15:42:27.921Z,405
2017-08-21T15:43:38.199Z,415
2017-08-21T15:44:48.478Z,430
2017-08-21T15:45:58.755Z,440
2017-08-21T15:47:09.033Z,445
2017-08-21T15:48:19.309Z,450
2017-08-21T15:49:29.585Z,450
2017-08-21T15:50:39.550Z,450
2017-08-21T15:51:49.512Z,450
2017-08-21T15:52:59.788Z,455
2017-08-21T15:54:10.079Z,450
2017-08-21T15:55:20.275Z,445
2017-08-21T15:56:30.557Z,445
2017-08-21T15:57:40.835Z,450
2017-08-21T15:58:51.120Z,455
2017-08-21T16:00:01.098Z,450
2017-08-21T16:01:11.071Z,445
2017-08-21T16:02:21.350Z,435
2017-08-21T16:03:31.629Z,430
2017-08-21T16:04:41.912Z,430
2017-08-21T16:05:51.872Z,425
2017-08-21T16:07:02.150Z,425
2017-08-21T16:08:12.115Z,425
2017-08-21T16:09:22.398Z,425
2017-08-21T16:10:32.060Z,420
2017-08-21T16:11:42.339Z,415
2017-08-21T16:12:52.616Z,410
2017-08-21T16:14:02.893Z,410
2017-08-21T16:15:13.238Z,415
2017-08-21T16:16:22.892Z,420
2017-08-21T16:17:32.557Z,425
2017-08-21T16:18:42.839Z,430
2017-08-21T16:19:53.120Z,430
2017-08-21T16:21:03.087Z,435
2017-08-21T16:22:13.060Z,425